sensor_id;sensor_type;location;lat;lon;timestamp;P1;durP1;ratioP1;P2;durP2;ratioP2
27187;SDS011;14708;50.872;5.306;2022-09-09T00:00:17;0.80;;;0.40;;
27187;SDS011;14708;50.872;5.306;2022-09-09T00:02:46;0.95;;;0.40;;
27187;SDS011;14708;50.872;5.306;2022-09-09T00:08:06;0.95;;;0.50;;
27187;SDS011;14708;50.872;5.306;2022-09-09T00:10:39;1.05;;;0.50;;
27187;SDS011;14708;50.872;5.306;2022-09-09T00:15:55;1.08;;;0.50;;
27187;SDS011;14708;50.872;5.306;2022-09-09T00:21:15;0.73;;;0.52;;
27187;SDS011;14708;50.872;5.306;2022-09-09T00:23:52;0.73;;;0.52;;
27187;SDS011;14708;50.872;5.306;2022-09-09T00:26:22;0.70;;;0.47;;
27187;SDS011;14708;50.872;5.306;2022-09-09T00:29:04;0.90;;;0.47;;
27187;SDS011;14708;50.872;5.306;2022-09-09T00:31:49;0.40;;;0.30;;
27187;SDS011;14708;50.872;5.306;2022-09-09T00:34:20;1.67;;;0.50;;
27187;SDS011;14708;50.872;5.306;2022-09-09T00:39:27;1.55;;;0.40;;
27187;SDS011;14708;50.872;5.306;2022-09-09T00:42:15;1.40;;;0.68;;
27187;SDS011;14708;50.872;5.306;2022-09-09T00:45:02;1.05;;;0.70;;
27187;SDS011;14708;50.872;5.306;2022-09-09T00:47:53;1.00;;;0.50;;
27187;SDS011;14708;50.872;5.306;2022-09-09T00:55:57;0.93;;;0.57;;
27187;SDS011;14708;50.872;5.306;2022-09-09T00:58:33;0.88;;;0.55;;
27187;SDS011;14708;50.872;5.306;2022-09-09T01:08:44;1.13;;;0.60;;
27187;SDS011;14708;50.872;5.306;2022-09-09T01:11:52;0.57;;;0.43;;
27187;SDS011;14708;50.872;5.306;2022-09-09T01:14:30;1.33;;;0.73;;
27187;SDS011;14708;50.872;5.306;2022-09-09T01:17:08;0.50;;;0.40;;
27187;SDS011;14708;50.872;5.306;2022-09-09T01:22:46;0.30;;;0.30;;
27187;SDS011;14708;50.872;5.306;2022-09-09T01:28:09;0.85;;;0.40;;
27187;SDS011;14708;50.872;5.306;2022-09-09T01:30:41;1.50;;;0.60;;
27187;SDS011;14708;50.872;5.306;2022-09-09T01:33:07;0.93;;;0.43;;
27187;SDS011;14708;50.872;5.306;2022-09-09T01:38:26;1.17;;;0.50;;
27187;SDS011;14708;50.872;5.306;2022-09-09T01:40:53;0.57;;;0.47;;
27187;SDS011;14708;50.872;5.306;2022-09-09T01:43:24;1.17;;;0.47;;
27187;SDS011;14708;50.872;5.306;2022-09-09T01:45:53;1.00;;;0.45;;
27187;SDS011;14708;50.872;5.306;2022-09-09T01:50:47;0.38;;;0.35;;
27187;SDS011;14708;50.872;5.306;2022-09-09T01:53:13;0.30;;;0.30;;
27187;SDS011;14708;50.872;5.306;2022-09-09T01:55:42;1.38;;;0.50;;
27187;SDS011;14708;50.872;5.306;2022-09-09T02:03:55;1.70;;;0.70;;
27187;SDS011;14708;50.872;5.306;2022-09-09T02:06:27;0.40;;;0.40;;
27187;SDS011;14708;50.872;5.306;2022-09-09T02:09:05;0.85;;;0.50;;
27187;SDS011;14708;50.872;5.306;2022-09-09T02:11:32;0.70;;;0.50;;
27187;SDS011;14708;50.872;5.306;2022-09-09T02:14:17;0.98;;;0.40;;
27187;SDS011;14708;50.872;5.306;2022-09-09T02:16:52;0.32;;;0.32;;
27187;SDS011;14708;50.872;5.306;2022-09-09T02:21:50;1.20;;;0.47;;
27187;SDS011;14708;50.872;5.306;2022-09-09T02:24:18;0.75;;;0.60;;
27187;SDS011;14708;50.872;5.306;2022-09-09T02:26:44;0.50;;;0.43;;
27187;SDS011;14708;50.872;5.306;2022-09-09T02:29:19;1.05;;;0.40;;
27187;SDS011;14708;50.872;5.306;2022-09-09T02:31:53;1.27;;;0.50;;
27187;SDS011;14708;50.872;5.306;2022-09-09T02:34:22;0.93;;;0.40;;
27187;SDS011;14708;50.872;5.306;2022-09-09T02:36:49;0.90;;;0.45;;
27187;SDS011;14708;50.872;5.306;2022-09-09T02:39:18;1.00;;;0.50;;
27187;SDS011;14708;50.872;5.306;2022-09-09T02:41:43;0.43;;;0.35;;
27187;SDS011;14708;50.872;5.306;2022-09-09T02:44:10;0.70;;;0.50;;
27187;SDS011;14708;50.872;5.306;2022-09-09T02:49:41;0.60;;;0.40;;
27187;SDS011;14708;50.872;5.306;2022-09-09T02:52:15;1.55;;;0.60;;
27187;SDS011;14708;50.872;5.306;2022-09-09T02:54:45;0.40;;;0.40;;
27187;SDS011;14708;50.872;5.306;2022-09-09T02:57:22;0.50;;;0.43;;
27187;SDS011;14708;50.872;5.306;2022-09-09T02:59:51;0.63;;;0.45;;
27187;SDS011;14708;50.872;5.306;2022-09-09T03:04:45;0.90;;;0.40;;
27187;SDS011;14708;50.872;5.306;2022-09-09T03:07:15;1.02;;;0.60;;
27187;SDS011;14708;50.872;5.306;2022-09-09T03:09:42;0.47;;;0.40;;
27187;SDS011;14708;50.872;5.306;2022-09-09T03:12:07;0.73;;;0.55;;
27187;SDS011;14708;50.872;5.306;2022-09-09T03:14:33;0.50;;;0.40;;
27187;SDS011;14708;50.872;5.306;2022-09-09T03:16:59;0.40;;;0.40;;
27187;SDS011;14708;50.872;5.306;2022-09-09T03:19:26;0.63;;;0.40;;
27187;SDS011;14708;50.872;5.306;2022-09-09T03:21:52;0.80;;;0.40;;
27187;SDS011;14708;50.872;5.306;2022-09-09T03:24:18;0.45;;;0.40;;
27187;SDS011;14708;50.872;5.306;2022-09-09T03:26:44;0.40;;;0.30;;
27187;SDS011;14708;50.872;5.306;2022-09-09T03:29:10;1.52;;;0.45;;
27187;SDS011;14708;50.872;5.306;2022-09-09T03:31:37;0.52;;;0.40;;
27187;SDS011;14708;50.872;5.306;2022-09-09T03:34:03;0.35;;;0.30;;
27187;SDS011;14708;50.872;5.306;2022-09-09T03:36:29;0.45;;;0.30;;
27187;SDS011;14708;50.872;5.306;2022-09-09T03:38:55;0.60;;;0.52;;
27187;SDS011;14708;50.872;5.306;2022-09-09T03:41:21;0.70;;;0.50;;
27187;SDS011;14708;50.872;5.306;2022-09-09T03:43:49;1.40;;;0.40;;
27187;SDS011;14708;50.872;5.306;2022-09-09T03:46:18;1.13;;;0.50;;
27187;SDS011;14708;50.872;5.306;2022-09-09T03:48:44;0.60;;;0.50;;
27187;SDS011;14708;50.872;5.306;2022-09-09T03:51:10;1.58;;;0.82;;
27187;SDS011;14708;50.872;5.306;2022-09-09T03:53:35;0.57;;;0.40;;
27187;SDS011;14708;50.872;5.306;2022-09-09T03:56:02;0.95;;;0.50;;
27187;SDS011;14708;50.872;5.306;2022-09-09T03:58:31;0.57;;;0.50;;
27187;SDS011;14708;50.872;5.306;2022-09-09T04:01:11;0.63;;;0.40;;
27187;SDS011;14708;50.872;5.306;2022-09-09T04:03:38;1.00;;;0.47;;
27187;SDS011;14708;50.872;5.306;2022-09-09T04:06:04;0.95;;;0.52;;
27187;SDS011;14708;50.872;5.306;2022-09-09T04:08:31;0.25;;;0.25;;
27187;SDS011;14708;50.872;5.306;2022-09-09T04:10:57;0.50;;;0.47;;
27187;SDS011;14708;50.872;5.306;2022-09-09T04:13:23;0.40;;;0.32;;
27187;SDS011;14708;50.872;5.306;2022-09-09T04:15:51;0.60;;;0.52;;
27187;SDS011;14708;50.872;5.306;2022-09-09T04:18:17;0.40;;;0.40;;
27187;SDS011;14708;50.872;5.306;2022-09-09T04:20:45;0.50;;;0.45;;
27187;SDS011;14708;50.872;5.306;2022-09-09T04:23:12;0.40;;;0.40;;
27187;SDS011;14708;50.872;5.306;2022-09-09T04:25:42;0.80;;;0.40;;
27187;SDS011;14708;50.872;5.306;2022-09-09T04:28:13;0.47;;;0.30;;
27187;SDS011;14708;50.872;5.306;2022-09-09T04:30:40;0.35;;;0.30;;
27187;SDS011;14708;50.872;5.306;2022-09-09T04:33:06;0.60;;;0.40;;
27187;SDS011;14708;50.872;5.306;2022-09-09T04:35:32;0.30;;;0.30;;
27187;SDS011;14708;50.872;5.306;2022-09-09T04:37:59;0.90;;;0.60;;
27187;SDS011;14708;50.872;5.306;2022-09-09T04:40:24;0.50;;;0.40;;
27187;SDS011;14708;50.872;5.306;2022-09-09T04:42:50;0.60;;;0.40;;
27187;SDS011;14708;50.872;5.306;2022-09-09T04:45:16;0.68;;;0.50;;
27187;SDS011;14708;50.872;5.306;2022-09-09T04:47:43;0.50;;;0.40;;
27187;SDS011;14708;50.872;5.306;2022-09-09T04:50:09;0.60;;;0.55;;
27187;SDS011;14708;50.872;5.306;2022-09-09T04:52:35;0.57;;;0.30;;
27187;SDS011;14708;50.872;5.306;2022-09-09T04:55:01;0.63;;;0.30;;
27187;SDS011;14708;50.872;5.306;2022-09-09T04:57:26;0.30;;;0.30;;
27187;SDS011;14708;50.872;5.306;2022-09-09T04:59:53;0.47;;;0.40;;
27187;SDS011;14708;50.872;5.306;2022-09-09T05:02:18;1.00;;;0.50;;
27187;SDS011;14708;50.872;5.306;2022-09-09T05:04:44;1.02;;;0.50;;
27187;SDS011;14708;50.872;5.306;2022-09-09T05:07:09;0.43;;;0.43;;
27187;SDS011;14708;50.872;5.306;2022-09-09T05:09:35;0.50;;;0.30;;
27187;SDS011;14708;50.872;5.306;2022-09-09T05:12:01;1.23;;;0.50;;
27187;SDS011;14708;50.872;5.306;2022-09-09T05:14:27;0.52;;;0.45;;
27187;SDS011;14708;50.872;5.306;2022-09-09T05:16:54;0.43;;;0.30;;
27187;SDS011;14708;50.872;5.306;2022-09-09T05:19:21;0.47;;;0.30;;
27187;SDS011;14708;50.872;5.306;2022-09-09T05:21:46;0.40;;;0.30;;
27187;SDS011;14708;50.872;5.306;2022-09-09T05:24:12;0.65;;;0.55;;
27187;SDS011;14708;50.872;5.306;2022-09-09T05:26:40;0.40;;;0.30;;
27187;SDS011;14708;50.872;5.306;2022-09-09T05:29:06;0.65;;;0.45;;
27187;SDS011;14708;50.872;5.306;2022-09-09T05:31:33;0.32;;;0.30;;
27187;SDS011;14708;50.872;5.306;2022-09-09T05:33:58;0.57;;;0.40;;
27187;SDS011;14708;50.872;5.306;2022-09-09T05:36:24;1.10;;;0.45;;
27187;SDS011;14708;50.872;5.306;2022-09-09T05:38:50;0.73;;;0.40;;
27187;SDS011;14708;50.872;5.306;2022-09-09T05:41:18;0.93;;;0.40;;
27187;SDS011;14708;50.872;5.306;2022-09-09T05:43:45;0.40;;;0.40;;
27187;SDS011;14708;50.872;5.306;2022-09-09T05:46:18;0.57;;;0.40;;
27187;SDS011;14708;50.872;5.306;2022-09-09T05:48:46;0.50;;;0.40;;
27187;SDS011;14708;50.872;5.306;2022-09-09T05:51:13;1.35;;;0.57;;
27187;SDS011;14708;50.872;5.306;2022-09-09T05:56:09;0.40;;;0.40;;
27187;SDS011;14708;50.872;5.306;2022-09-09T05:58:36;0.52;;;0.38;;
27187;SDS011;14708;50.872;5.306;2022-09-09T06:01:07;0.80;;;0.45;;
27187;SDS011;14708;50.872;5.306;2022-09-09T06:03:34;0.45;;;0.40;;
27187;SDS011;14708;50.872;5.306;2022-09-09T06:06:00;0.40;;;0.40;;
27187;SDS011;14708;50.872;5.306;2022-09-09T06:08:30;0.65;;;0.47;;
27187;SDS011;14708;50.872;5.306;2022-09-09T06:11:09;0.40;;;0.40;;
27187;SDS011;14708;50.872;5.306;2022-09-09T06:13:42;0.63;;;0.40;;
27187;SDS011;14708;50.872;5.306;2022-09-09T06:16:08;0.40;;;0.40;;
27187;SDS011;14708;50.872;5.306;2022-09-09T06:18:36;0.50;;;0.37;;
27187;SDS011;14708;50.872;5.306;2022-09-09T06:21:03;0.40;;;0.40;;
27187;SDS011;14708;50.872;5.306;2022-09-09T06:23:31;0.75;;;0.50;;
27187;SDS011;14708;50.872;5.306;2022-09-09T06:26:09;0.30;;;0.30;;
27187;SDS011;14708;50.872;5.306;2022-09-09T06:28:42;0.68;;;0.40;;
27187;SDS011;14708;50.872;5.306;2022-09-09T06:31:11;0.30;;;0.30;;
27187;SDS011;14708;50.872;5.306;2022-09-09T06:33:38;0.70;;;0.40;;
27187;SDS011;14708;50.872;5.306;2022-09-09T06:36:07;0.50;;;0.40;;
27187;SDS011;14708;50.872;5.306;2022-09-09T06:38:43;0.82;;;0.60;;
27187;SDS011;14708;50.872;5.306;2022-09-09T06:41:10;0.60;;;0.40;;
27187;SDS011;14708;50.872;5.306;2022-09-09T06:43:37;0.88;;;0.47;;
27187;SDS011;14708;50.872;5.306;2022-09-09T06:46:07;0.63;;;0.40;;
27187;SDS011;14708;50.872;5.306;2022-09-09T06:48:35;0.65;;;0.28;;
27187;SDS011;14708;50.872;5.306;2022-09-09T06:51:06;0.45;;;0.45;;
27187;SDS011;14708;50.872;5.306;2022-09-09T06:53:34;0.75;;;0.57;;
27187;SDS011;14708;50.872;5.306;2022-09-09T06:56:01;0.50;;;0.45;;
27187;SDS011;14708;50.872;5.306;2022-09-09T06:58:40;2.65;;;0.80;;
27187;SDS011;14708;50.872;5.306;2022-09-09T07:01:09;4.73;;;1.00;;
27187;SDS011;14708;50.872;5.306;2022-09-09T07:03:37;5.32;;;1.33;;
27187;SDS011;14708;50.872;5.306;2022-09-09T07:06:03;6.82;;;1.92;;
27187;SDS011;14708;50.872;5.306;2022-09-09T07:08:30;6.85;;;1.95;;
27187;SDS011;14708;50.872;5.306;2022-09-09T07:11:01;7.78;;;1.80;;
27187;SDS011;14708;50.872;5.306;2022-09-09T07:13:29;7.70;;;1.80;;
27187;SDS011;14708;50.872;5.306;2022-09-09T07:16:08;11.93;;;2.10;;
27187;SDS011;14708;50.872;5.306;2022-09-09T07:18:36;8.20;;;2.10;;
27187;SDS011;14708;50.872;5.306;2022-09-09T07:21:02;7.20;;;1.63;;
27187;SDS011;14708;50.872;5.306;2022-09-09T07:23:28;7.65;;;2.00;;
27187;SDS011;14708;50.872;5.306;2022-09-09T07:25:55;8.68;;;2.17;;
27187;SDS011;14708;50.872;5.306;2022-09-09T07:28:22;7.72;;;1.70;;
27187;SDS011;14708;50.872;5.306;2022-09-09T07:30:58;6.70;;;1.50;;
27187;SDS011;14708;50.872;5.306;2022-09-09T07:33:27;7.65;;;1.90;;
27187;SDS011;14708;50.872;5.306;2022-09-09T07:36:01;9.38;;;1.88;;
27187;SDS011;14708;50.872;5.306;2022-09-09T07:38:32;11.00;;;2.35;;
27187;SDS011;14708;50.872;5.306;2022-09-09T07:41:14;6.55;;;1.55;;
27187;SDS011;14708;50.872;5.306;2022-09-09T07:43:43;5.90;;;1.60;;
27187;SDS011;14708;50.872;5.306;2022-09-09T07:46:10;7.90;;;1.85;;
27187;SDS011;14708;50.872;5.306;2022-09-09T07:48:37;9.18;;;2.42;;
27187;SDS011;14708;50.872;5.306;2022-09-09T07:51:10;8.10;;;1.90;;
27187;SDS011;14708;50.872;5.306;2022-09-09T07:53:40;6.53;;;1.88;;
27187;SDS011;14708;50.872;5.306;2022-09-09T07:56:07;12.05;;;1.65;;
27187;SDS011;14708;50.872;5.306;2022-09-09T07:58:46;11.18;;;2.00;;
27187;SDS011;14708;50.872;5.306;2022-09-09T08:01:13;4.70;;;1.50;;
27187;SDS011;14708;50.872;5.306;2022-09-09T08:03:42;6.80;;;1.73;;
27187;SDS011;14708;50.872;5.306;2022-09-09T08:06:09;7.90;;;1.75;;
27187;SDS011;14708;50.872;5.306;2022-09-09T08:08:37;9.85;;;2.33;;
27187;SDS011;14708;50.872;5.306;2022-09-09T08:11:08;7.45;;;1.83;;
27187;SDS011;14708;50.872;5.306;2022-09-09T08:13:36;7.05;;;1.80;;
27187;SDS011;14708;50.872;5.306;2022-09-09T08:16:03;28.65;;;5.47;;
27187;SDS011;14708;50.872;5.306;2022-09-09T08:18:30;106.57;;;21.13;;
27187;SDS011;14708;50.872;5.306;2022-09-09T08:20:56;86.18;;;14.65;;
27187;SDS011;14708;50.872;5.306;2022-09-09T08:23:21;44.05;;;9.50;;
27187;SDS011;14708;50.872;5.306;2022-09-09T08:25:52;39.07;;;8.07;;
27187;SDS011;14708;50.872;5.306;2022-09-09T08:28:18;31.50;;;6.32;;
27187;SDS011;14708;50.872;5.306;2022-09-09T08:30:43;33.13;;;5.75;;
27187;SDS011;14708;50.872;5.306;2022-09-09T08:33:09;26.40;;;5.15;;
27187;SDS011;14708;50.872;5.306;2022-09-09T08:35:35;20.88;;;4.57;;
27187;SDS011;14708;50.872;5.306;2022-09-09T08:38:01;19.17;;;4.47;;
27187;SDS011;14708;50.872;5.306;2022-09-09T08:40:28;17.00;;;3.50;;
27187;SDS011;14708;50.872;5.306;2022-09-09T08:42:58;10.55;;;2.88;;
27187;SDS011;14708;50.872;5.306;2022-09-09T08:45:29;9.30;;;2.40;;
27187;SDS011;14708;50.872;5.306;2022-09-09T08:50:37;16.42;;;2.80;;
27187;SDS011;14708;50.872;5.306;2022-09-09T08:55:46;9.00;;;1.92;;
27187;SDS011;14708;50.872;5.306;2022-09-09T08:58:17;12.38;;;2.40;;
27187;SDS011;14708;50.872;5.306;2022-09-09T09:06:08;11.93;;;2.15;;
27187;SDS011;14708;50.872;5.306;2022-09-09T09:09:01;9.77;;;2.08;;
27187;SDS011;14708;50.872;5.306;2022-09-09T09:11:34;6.40;;;2.03;;
27187;SDS011;14708;50.872;5.306;2022-09-09T09:14:03;7.93;;;2.00;;
27187;SDS011;14708;50.872;5.306;2022-09-09T09:19:14;12.07;;;2.05;;
27187;SDS011;14708;50.872;5.306;2022-09-09T09:21:42;8.38;;;1.52;;
27187;SDS011;14708;50.872;5.306;2022-09-09T09:24:19;6.40;;;1.67;;
27187;SDS011;14708;50.872;5.306;2022-09-09T09:26:49;6.85;;;1.98;;
27187;SDS011;14708;50.872;5.306;2022-09-09T09:29:17;6.85;;;2.10;;
27187;SDS011;14708;50.872;5.306;2022-09-09T09:31:55;5.57;;;1.90;;
27187;SDS011;14708;50.872;5.306;2022-09-09T09:36:56;8.15;;;1.65;;
27187;SDS011;14708;50.872;5.306;2022-09-09T09:41:53;5.80;;;1.40;;
27187;SDS011;14708;50.872;5.306;2022-09-09T09:44:23;8.35;;;2.13;;
27187;SDS011;14708;50.872;5.306;2022-09-09T09:46:50;7.07;;;1.67;;
27187;SDS011;14708;50.872;5.306;2022-09-09T09:49:16;5.32;;;1.40;;
27187;SDS011;14708;50.872;5.306;2022-09-09T09:51:42;9.15;;;1.90;;
27187;SDS011;14708;50.872;5.306;2022-09-09T09:54:15;7.32;;;1.35;;
27187;SDS011;14708;50.872;5.306;2022-09-09T09:56:52;5.38;;;1.40;;
27187;SDS011;14708;50.872;5.306;2022-09-09T09:59:22;8.35;;;1.90;;
27187;SDS011;14708;50.872;5.306;2022-09-09T10:04:40;6.72;;;1.77;;
27187;SDS011;14708;50.872;5.306;2022-09-09T10:07:13;5.57;;;1.60;;
27187;SDS011;14708;50.872;5.306;2022-09-09T10:09:45;6.50;;;1.73;;
27187;SDS011;14708;50.872;5.306;2022-09-09T10:23:21;7.35;;;2.97;;
27187;SDS011;14708;50.872;5.306;2022-09-09T10:33:51;9.02;;;2.58;;
27187;SDS011;14708;50.872;5.306;2022-09-09T10:36:32;5.90;;;1.80;;
27187;SDS011;14708;50.872;5.306;2022-09-09T10:39:04;8.07;;;2.10;;
27187;SDS011;14708;50.872;5.306;2022-09-09T10:42:14;7.82;;;2.20;;
27187;SDS011;14708;50.872;5.306;2022-09-09T10:47:48;3.67;;;1.60;;
27187;SDS011;14708;50.872;5.306;2022-09-09T10:55:35;7.85;;;1.88;;
27187;SDS011;14708;50.872;5.306;2022-09-09T10:58:08;6.55;;;1.52;;
27187;SDS011;14708;50.872;5.306;2022-09-09T11:00:47;5.38;;;2.00;;
27187;SDS011;14708;50.872;5.306;2022-09-09T11:03:20;5.60;;;1.35;;
27187;SDS011;14708;50.872;5.306;2022-09-09T11:08:31;6.15;;;1.75;;
27187;SDS011;14708;50.872;5.306;2022-09-09T11:16:21;5.78;;;1.58;;
27187;SDS011;14708;50.872;5.306;2022-09-09T11:19:26;8.77;;;1.75;;
27187;SDS011;14708;50.872;5.306;2022-09-09T11:21:52;5.88;;;1.42;;
27187;SDS011;14708;50.872;5.306;2022-09-09T11:24:21;6.43;;;1.50;;
27187;SDS011;14708;50.872;5.306;2022-09-09T11:29:26;5.53;;;1.35;;
27187;SDS011;14708;50.872;5.306;2022-09-09T11:40:30;8.10;;;1.80;;
27187;SDS011;14708;50.872;5.306;2022-09-09T11:43:03;7.88;;;2.00;;
27187;SDS011;14708;50.872;5.306;2022-09-09T11:45:34;4.47;;;1.23;;
27187;SDS011;14708;50.872;5.306;2022-09-09T11:48:01;6.57;;;1.73;;
27187;SDS011;14708;50.872;5.306;2022-09-09T11:50:29;5.80;;;1.63;;
27187;SDS011;14708;50.872;5.306;2022-09-09T11:53:18;9.70;;;2.22;;
27187;SDS011;14708;50.872;5.306;2022-09-09T11:55:47;5.28;;;1.30;;
27187;SDS011;14708;50.872;5.306;2022-09-09T11:58:24;6.00;;;1.85;;
27187;SDS011;14708;50.872;5.306;2022-09-09T12:00:50;6.10;;;1.33;;
27187;SDS011;14708;50.872;5.306;2022-09-09T12:06:29;6.78;;;1.42;;
27187;SDS011;14708;50.872;5.306;2022-09-09T12:09:20;6.53;;;1.77;;
27187;SDS011;14708;50.872;5.306;2022-09-09T12:19:41;6.13;;;1.60;;
27187;SDS011;14708;50.872;5.306;2022-09-09T12:25:16;40.80;;;10.00;;
27187;SDS011;14708;50.872;5.306;2022-09-09T12:28:09;47.85;;;8.95;;
27187;SDS011;14708;50.872;5.306;2022-09-09T12:33:33;20.33;;;4.63;;
27187;SDS011;14708;50.872;5.306;2022-09-09T12:36:04;17.95;;;4.50;;
27187;SDS011;14708;50.872;5.306;2022-09-09T12:38:36;14.95;;;3.58;;
27187;SDS011;14708;50.872;5.306;2022-09-09T12:41:03;17.48;;;3.53;;
27187;SDS011;14708;50.872;5.306;2022-09-09T12:43:29;11.50;;;3.20;;
27187;SDS011;14708;50.872;5.306;2022-09-09T12:45:59;12.90;;;2.80;;
27187;SDS011;14708;50.872;5.306;2022-09-09T12:48:35;9.13;;;2.33;;
27187;SDS011;14708;50.872;5.306;2022-09-09T12:51:04;6.80;;;2.38;;
27187;SDS011;14708;50.872;5.306;2022-09-09T12:53:43;7.35;;;2.10;;
27187;SDS011;14708;50.872;5.306;2022-09-09T12:56:18;7.38;;;1.92;;
27187;SDS011;14708;50.872;5.306;2022-09-09T12:58:46;7.18;;;1.70;;
27187;SDS011;14708;50.872;5.306;2022-09-09T13:01:26;6.93;;;1.75;;
27187;SDS011;14708;50.872;5.306;2022-09-09T13:03:56;6.10;;;1.95;;
27187;SDS011;14708;50.872;5.306;2022-09-09T13:06:24;7.03;;;1.75;;
27187;SDS011;14708;50.872;5.306;2022-09-09T13:08:51;7.95;;;1.73;;
27187;SDS011;14708;50.872;5.306;2022-09-09T13:11:29;9.52;;;2.42;;
27187;SDS011;14708;50.872;5.306;2022-09-09T13:14:13;7.00;;;1.67;;
27187;SDS011;14708;50.872;5.306;2022-09-09T13:16:57;6.93;;;1.58;;
27187;SDS011;14708;50.872;5.306;2022-09-09T13:19:26;6.63;;;1.65;;
27187;SDS011;14708;50.872;5.306;2022-09-09T13:21:56;7.85;;;1.65;;
27187;SDS011;14708;50.872;5.306;2022-09-09T13:24:30;8.38;;;1.70;;
27187;SDS011;14708;50.872;5.306;2022-09-09T13:29:27;7.57;;;2.10;;
27187;SDS011;14708;50.872;5.306;2022-09-09T13:31:53;10.25;;;2.00;;
27187;SDS011;14708;50.872;5.306;2022-09-09T13:34:31;9.30;;;1.90;;
27187;SDS011;14708;50.872;5.306;2022-09-09T13:36:59;7.60;;;1.95;;
27187;SDS011;14708;50.872;5.306;2022-09-09T13:39:27;9.43;;;1.87;;
27187;SDS011;14708;50.872;5.306;2022-09-09T13:41:53;6.50;;;2.22;;
27187;SDS011;14708;50.872;5.306;2022-09-09T13:44:24;9.07;;;2.20;;
27187;SDS011;14708;50.872;5.306;2022-09-09T13:49:47;8.73;;;2.00;;
27187;SDS011;14708;50.872;5.306;2022-09-09T13:52:14;6.03;;;2.00;;
27187;SDS011;14708;50.872;5.306;2022-09-09T13:54:42;6.97;;;2.20;;
27187;SDS011;14708;50.872;5.306;2022-09-09T13:57:17;6.95;;;1.65;;
27187;SDS011;14708;50.872;5.306;2022-09-09T13:59:45;11.95;;;2.03;;
27187;SDS011;14708;50.872;5.306;2022-09-09T14:02:12;7.32;;;2.22;;
27187;SDS011;14708;50.872;5.306;2022-09-09T14:04:38;8.77;;;1.70;;
27187;SDS011;14708;50.872;5.306;2022-09-09T14:07:07;8.55;;;2.22;;
27187;SDS011;14708;50.872;5.306;2022-09-09T14:09:37;5.40;;;1.40;;
27187;SDS011;14708;50.872;5.306;2022-09-09T14:12:03;7.38;;;1.88;;
27187;SDS011;14708;50.872;5.306;2022-09-09T14:14:29;10.25;;;1.58;;
27187;SDS011;14708;50.872;5.306;2022-09-09T14:16:55;9.05;;;2.10;;
27187;SDS011;14708;50.872;5.306;2022-09-09T14:19:20;10.65;;;2.20;;
27187;SDS011;14708;50.872;5.306;2022-09-09T14:21:46;14.15;;;2.15;;
27187;SDS011;14708;50.872;5.306;2022-09-09T14:24:12;12.88;;;2.25;;
27187;SDS011;14708;50.872;5.306;2022-09-09T14:26:37;7.30;;;1.85;;
27187;SDS011;14708;50.872;5.306;2022-09-09T14:29:03;9.55;;;1.50;;
27187;SDS011;14708;50.872;5.306;2022-09-09T14:31:29;7.97;;;1.55;;
27187;SDS011;14708;50.872;5.306;2022-09-09T14:33:54;9.48;;;2.10;;
27187;SDS011;14708;50.872;5.306;2022-09-09T14:36:20;10.10;;;1.65;;
27187;SDS011;14708;50.872;5.306;2022-09-09T14:38:46;5.93;;;1.40;;
27187;SDS011;14708;50.872;5.306;2022-09-09T14:41:14;9.13;;;1.85;;
27187;SDS011;14708;50.872;5.306;2022-09-09T14:43:44;7.75;;;1.75;;
27187;SDS011;14708;50.872;5.306;2022-09-09T14:46:12;9.32;;;1.83;;
27187;SDS011;14708;50.872;5.306;2022-09-09T14:48:42;6.28;;;1.55;;
27187;SDS011;14708;50.872;5.306;2022-09-09T14:51:11;5.55;;;1.52;;
27187;SDS011;14708;50.872;5.306;2022-09-09T14:53:41;8.80;;;1.40;;
27187;SDS011;14708;50.872;5.306;2022-09-09T14:56:12;9.18;;;1.40;;
27187;SDS011;14708;50.872;5.306;2022-09-09T14:58:42;8.23;;;1.50;;
27187;SDS011;14708;50.872;5.306;2022-09-09T15:01:09;6.63;;;1.35;;
27187;SDS011;14708;50.872;5.306;2022-09-09T15:03:36;8.05;;;1.75;;
27187;SDS011;14708;50.872;5.306;2022-09-09T15:06:09;6.32;;;1.60;;
27187;SDS011;14708;50.872;5.306;2022-09-09T15:08:38;10.90;;;1.65;;
27187;SDS011;14708;50.872;5.306;2022-09-09T15:11:09;5.03;;;1.20;;
27187;SDS011;14708;50.872;5.306;2022-09-09T15:13:36;6.15;;;1.27;;
27187;SDS011;14708;50.872;5.306;2022-09-09T15:16:03;10.30;;;1.73;;
27187;SDS011;14708;50.872;5.306;2022-09-09T15:18:33;4.60;;;1.00;;
27187;SDS011;14708;50.872;5.306;2022-09-09T15:21:01;4.18;;;1.42;;
27187;SDS011;14708;50.872;5.306;2022-09-09T15:23:32;8.25;;;1.35;;
27187;SDS011;14708;50.872;5.306;2022-09-09T15:25:58;5.30;;;1.52;;
27187;SDS011;14708;50.872;5.306;2022-09-09T15:28:24;6.03;;;1.30;;
27187;SDS011;14708;50.872;5.306;2022-09-09T15:30:50;5.65;;;1.55;;
27187;SDS011;14708;50.872;5.306;2022-09-09T15:33:17;2.45;;;1.20;;
27187;SDS011;14708;50.872;5.306;2022-09-09T15:35:44;5.43;;;1.30;;
27187;SDS011;14708;50.872;5.306;2022-09-09T15:38:10;5.00;;;1.38;;
27187;SDS011;14708;50.872;5.306;2022-09-09T15:40:38;4.97;;;1.30;;
27187;SDS011;14708;50.872;5.306;2022-09-09T15:43:04;4.28;;;1.27;;
27187;SDS011;14708;50.872;5.306;2022-09-09T15:45:31;5.05;;;1.27;;
27187;SDS011;14708;50.872;5.306;2022-09-09T15:48:00;4.82;;;1.17;;
27187;SDS011;14708;50.872;5.306;2022-09-09T15:50:26;8.38;;;1.80;;
27187;SDS011;14708;50.872;5.306;2022-09-09T15:52:52;7.78;;;1.50;;
27187;SDS011;14708;50.872;5.306;2022-09-09T15:55:18;8.57;;;1.13;;
27187;SDS011;14708;50.872;5.306;2022-09-09T15:57:45;11.15;;;2.22;;
27187;SDS011;14708;50.872;5.306;2022-09-09T16:00:11;8.00;;;1.58;;
27187;SDS011;14708;50.872;5.306;2022-09-09T16:02:38;10.13;;;1.40;;
27187;SDS011;14708;50.872;5.306;2022-09-09T16:05:04;5.22;;;1.33;;
27187;SDS011;14708;50.872;5.306;2022-09-09T16:07:30;4.05;;;1.00;;
27187;SDS011;14708;50.872;5.306;2022-09-09T16:09:55;5.65;;;1.27;;
27187;SDS011;14708;50.872;5.306;2022-09-09T16:12:21;6.20;;;1.60;;
27187;SDS011;14708;50.872;5.306;2022-09-09T16:14:46;5.30;;;1.05;;
27187;SDS011;14708;50.872;5.306;2022-09-09T16:17:12;5.25;;;1.23;;
27187;SDS011;14708;50.872;5.306;2022-09-09T16:19:39;7.30;;;1.33;;
27187;SDS011;14708;50.872;5.306;2022-09-09T16:22:04;4.35;;;1.38;;
27187;SDS011;14708;50.872;5.306;2022-09-09T16:24:31;3.33;;;0.93;;
27187;SDS011;14708;50.872;5.306;2022-09-09T16:26:57;7.60;;;1.00;;
27187;SDS011;14708;50.872;5.306;2022-09-09T16:29:25;8.05;;;1.60;;
27187;SDS011;14708;50.872;5.306;2022-09-09T16:31:52;7.20;;;1.55;;
27187;SDS011;14708;50.872;5.306;2022-09-09T16:34:19;4.50;;;1.27;;
27187;SDS011;14708;50.872;5.306;2022-09-09T16:36:46;4.15;;;1.13;;
27187;SDS011;14708;50.872;5.306;2022-09-09T16:39:14;2.60;;;1.05;;
27187;SDS011;14708;50.872;5.306;2022-09-09T16:41:42;6.33;;;1.23;;
27187;SDS011;14708;50.872;5.306;2022-09-09T16:44:09;3.83;;;1.45;;
27187;SDS011;14708;50.872;5.306;2022-09-09T16:46:38;5.47;;;1.20;;
27187;SDS011;14708;50.872;5.306;2022-09-09T16:49:06;3.75;;;1.00;;
27187;SDS011;14708;50.872;5.306;2022-09-09T16:51:34;3.83;;;1.30;;
27187;SDS011;14708;50.872;5.306;2022-09-09T16:54:05;4.13;;;1.25;;
27187;SDS011;14708;50.872;5.306;2022-09-09T16:56:32;8.85;;;1.67;;
27187;SDS011;14708;50.872;5.306;2022-09-09T17:01:29;3.65;;;1.30;;
27187;SDS011;14708;50.872;5.306;2022-09-09T17:06:28;3.60;;;1.30;;
27187;SDS011;14708;50.872;5.306;2022-09-09T17:08:56;8.77;;;1.30;;
27187;SDS011;14708;50.872;5.306;2022-09-09T17:11:23;5.68;;;1.30;;
27187;SDS011;14708;50.872;5.306;2022-09-09T17:13:49;5.07;;;1.20;;
27187;SDS011;14708;50.872;5.306;2022-09-09T17:16:16;5.38;;;1.02;;
27187;SDS011;14708;50.872;5.306;2022-09-09T17:18:43;4.20;;;1.20;;
27187;SDS011;14708;50.872;5.306;2022-09-09T17:21:14;3.80;;;1.10;;
27187;SDS011;14708;50.872;5.306;2022-09-09T17:23:42;4.50;;;1.20;;
27187;SDS011;14708;50.872;5.306;2022-09-09T17:26:09;4.57;;;1.35;;